Time;durP1;ratioP1;P1;durP2;ratioP2;P2;SDS_P1;SDS_P2;PMS_P1;PMS_P2;Temp;Humidity;BMP_temperature;BMP_pressure;BME280_temperature;BME280_humidity;BME280_pressure;Samples;Min_cycle;Max_cycle;Signal;HPM_P1;HPM_P2
2023/11/30 00:02:22;;;;;;;2.50;1.50;;;;;;;;;;5037314;28;21040;-61
2023/11/30 00:04:47;;;;;;;2.13;1.70;;;;;;;;;;5042761;28;20329;-61
2023/11/30 00:07:14;;;;;;;2.10;1.50;;;;;;;;;;5040792;28;20350;-62
2023/11/30 00:09:39;;;;;;;2.38;1.60;;;;;;;;;;5033369;28;20617;-62
2023/11/30 00:12:05;;;;;;;2.20;1.40;;;;;;;;;;5055571;28;20100;-62
2023/11/30 00:14:30;;;;;;;2.70;1.50;;;;;;;;;;5040787;28;20295;-62
2023/11/30 00:16:55;;;;;;;2.80;1.37;;;;;;;;;;5041770;28;20021;-60
2023/11/30 00:19:21;;;;;;;1.98;1.50;;;;;;;;;;5041356;28;22782;-62
2023/11/30 00:21:46;;;;;;;2.40;1.57;;;;;;;;;;5041840;28;20505;-61
2023/11/30 00:24:11;;;;;;;2.23;1.80;;;;;;;;;;5041362;28;20625;-61
2023/11/30 00:26:36;;;;;;;1.80;1.27;;;;;;;;;;5042576;28;20348;-61
2023/11/30 00:29:02;;;;;;;2.23;1.60;;;;;;;;;;5041267;28;20267;-62
2023/11/30 00:31:27;;;;;;;1.73;1.23;;;;;;;;;;5040797;28;20263;-62
2023/11/30 00:33:55;;;;;;;2.27;1.37;;;;;;;;;;5041242;28;20032;-62
2023/11/30 00:36:20;;;;;;;2.10;1.40;;;;;;;;;;5041565;28;20280;-62
2023/11/30 00:38:49;;;;;;;3.03;1.60;;;;;;;;;;5023705;28;20144;-62
2023/11/30 00:41:17;;;;;;;2.42;1.58;;;;;;;;;;5037879;28;20280;-61
2023/11/30 00:43:44;;;;;;;;;;;;;;;;;;5035388;28;20178;-62
2023/11/30 00:46:14;;;;;;;2.30;1.50;;;;;;;;;;5043049;28;20345;-61
2023/11/30 00:48:39;;;;;;;2.40;1.63;;;;;;;;;;5032865;28;20052;-60
2023/11/30 00:51:07;;;;;;;2.27;1.50;;;;;;;;;;5042072;28;20027;-61
2023/11/30 00:53:32;;;;;;;1.73;1.38;;;;;;;;;;5035651;28;20279;-61
2023/11/30 00:56:00;;;;;;;2.50;1.50;;;;;;;;;;5042080;28;20846;-62
2023/11/30 00:58:26;;;;;;;2.05;1.30;;;;;;;;;;5039312;28;20756;-61
2023/11/30 01:00:51;;;;;;;2.10;1.33;;;;;;;;;;5040023;28;20053;-61
2023/11/30 01:03:18;;;;;;;2.08;1.23;;;;;;;;;;5038842;28;20139;-61
2023/11/30 01:05:44;;;;;;;1.63;1.23;;;;;;;;;;5038287;28;20085;-62
2023/11/30 01:08:11;;;;;;;2.10;1.53;;;;;;;;;;5040774;28;20279;-62
2023/11/30 01:10:36;;;;;;;1.70;1.30;;;;;;;;;;5039859;28;20399;-61
2023/11/30 01:13:02;;;;;;;2.30;1.50;;;;;;;;;;5040545;28;20442;-62
2023/11/30 01:15:27;;;;;;;1.97;1.47;;;;;;;;;;5039797;28;20280;-61
2023/11/30 01:17:53;;;;;;;2.13;1.25;;;;;;;;;;5039813;28;20307;-61
2023/11/30 01:20:21;;;;;;;2.22;1.40;;;;;;;;;;5040158;28;20450;-62
2023/11/30 01:22:46;;;;;;;1.98;1.50;;;;;;;;;;5039215;28;20029;-62
2023/11/30 01:25:12;;;;;;;2.33;1.30;;;;;;;;;;5033854;28;20028;-61
2023/11/30 01:27:37;;;;;;;2.25;1.60;;;;;;;;;;5030467;28;20429;-62
2023/11/30 01:30:03;;;;;;;1.83;1.27;;;;;;;;;;5040842;28;20033;-61
2023/11/30 01:32:30;;;;;;;2.00;1.40;;;;;;;;;;5041144;28;20379;-61
2023/11/30 01:34:55;;;;;;;1.60;1.10;;;;;;;;;;5035150;28;20405;-61
2023/11/30 01:37:23;;;;;;;2.55;1.48;;;;;;;;;;5039882;28;20490;-61
2023/11/30 01:39:48;;;;;;;2.20;1.35;;;;;;;;;;5039160;28;20545;-61
2023/11/30 01:42:17;;;;;;;2.58;1.65;;;;;;;;;;5038190;28;20068;-62
2023/11/30 01:44:42;;;;;;;2.17;1.60;;;;;;;;;;5039901;28;20037;-61
2023/11/30 01:47:07;;;;;;;2.50;1.67;;;;;;;;;;5039361;28;20033;-61
2023/11/30 01:49:35;;;;;;;2.67;1.70;;;;;;;;;;5037457;28;20285;-62
2023/11/30 01:52:04;;;;;;;1.85;1.30;;;;;;;;;;5038041;28;20283;-63
2023/11/30 01:54:30;;;;;;;1.67;1.43;;;;;;;;;;5029596;28;20038;-61
2023/11/30 01:56:56;;;;;;;1.45;1.02;;;;;;;;;;5035516;28;20526;-62
2023/11/30 01:59:21;;;;;;;2.25;1.67;;;;;;;;;;5038651;28;20045;-61
2023/11/30 02:01:47;;;;;;;2.33;1.67;;;;;;;;;;5039396;28;20060;-61
2023/11/30 02:04:13;;;;;;;2.37;1.37;;;;;;;;;;5040760;28;20275;-61
2023/11/30 02:06:38;;;;;;;1.60;1.38;;;;;;;;;;5039270;28;20284;-61
2023/11/30 02:09:04;;;;;;;2.00;1.45;;;;;;;;;;5040255;28;20506;-61
2023/11/30 02:11:33;;;;;;;2.00;1.48;;;;;;;;;;5038648;28;20048;-61
2023/11/30 02:14:01;;;;;;;2.23;1.57;;;;;;;;;;5030437;28;20863;-61
2023/11/30 02:16:26;;;;;;;1.98;1.50;;;;;;;;;;5039144;28;20875;-61
2023/11/30 02:18:55;;;;;;;2.10;1.30;;;;;;;;;;5036126;28;20091;-62
2023/11/30 02:21:20;;;;;;;2.65;1.50;;;;;;;;;;5036396;28;20041;-62
2023/11/30 02:23:48;;;;;;;2.20;1.40;;;;;;;;;;5042104;28;20381;-62
2023/11/30 02:26:15;;;;;;;2.20;1.73;;;;;;;;;;5041066;28;20275;-59
2023/11/30 02:28:41;;;;;;;1.77;1.38;;;;;;;;;;5044062;28;20047;-60
2023/11/30 02:31:06;;;;;;;2.08;1.50;;;;;;;;;;5041385;28;20072;-60
2023/11/30 02:33:35;;;;;;;2.40;1.70;;;;;;;;;;5034186;28;20056;-61
2023/11/30 02:36:00;;;;;;;2.03;1.52;;;;;;;;;;5039012;28;20120;-60
2023/11/30 02:38:25;;;;;;;2.17;1.60;;;;;;;;;;5031545;28;20132;-60
2023/11/30 02:40:53;;;;;;;2.20;1.20;;;;;;;;;;5027454;28;20276;-61
2023/11/30 02:43:28;;;;;;;2.35;1.45;;;;;;;;;;5040156;28;20295;-63
2023/11/30 02:45:53;;;;;;;2.10;1.55;;;;;;;;;;5039049;28;20052;-60
2023/11/30 02:48:18;;;;;;;2.58;1.50;;;;;;;;;;5033257;28;20033;-60
2023/11/30 02:50:46;;;;;;;2.13;1.50;;;;;;;;;;5041691;28;20505;-60
2023/11/30 02:53:12;;;;;;;1.90;1.35;;;;;;;;;;5044624;28;20044;-60
2023/11/30 02:55:37;;;;;;;2.23;1.50;;;;;;;;;;5043074;28;20033;-60
2023/11/30 02:58:02;;;;;;;1.97;1.33;;;;;;;;;;5042827;28;20306;-60
2023/11/30 03:00:27;;;;;;;2.27;1.40;;;;;;;;;;5042633;28;20695;-61
2023/11/30 03:02:53;;;;;;;2.90;1.70;;;;;;;;;;5043696;28;20323;-60
2023/11/30 03:05:18;;;;;;;2.20;1.65;;;;;;;;;;5040097;28;21246;-60
2023/11/30 03:07:43;;;;;;;1.67;1.40;;;;;;;;;;5038975;28;20455;-61
2023/11/30 03:10:08;;;;;;;1.77;1.35;;;;;;;;;;5041979;28;21054;-60
2023/11/30 03:12:34;;;;;;;2.42;1.63;;;;;;;;;;5026141;28;20636;-61
2023/11/30 03:14:59;;;;;;;2.08;1.52;;;;;;;;;;5043824;28;20636;-61
2023/11/30 03:17:27;;;;;;;2.73;1.87;;;;;;;;;;5041443;28;20048;-60
2023/11/30 03:19:52;;;;;;;1.95;1.50;;;;;;;;;;5043629;28;20287;-60
2023/11/30 03:22:21;;;;;;;1.90;1.60;;;;;;;;;;5042588;28;20507;-62
2023/11/30 03:24:46;;;;;;;2.28;1.70;;;;;;;;;;5032984;28;21118;-61
2023/11/30 03:27:11;;;;;;;2.05;1.58;;;;;;;;;;5043291;28;20025;-60
2023/11/30 03:29:40;;;;;;;2.40;1.60;;;;;;;;;;5041513;28;20029;-61
2023/11/30 03:32:09;;;;;;;2.15;1.48;;;;;;;;;;5040681;28;20041;-60
2023/11/30 03:34:34;;;;;;;2.27;1.60;;;;;;;;;;5042559;28;20620;-61
2023/11/30 03:37:01;;;;;;;2.30;1.70;;;;;;;;;;5040869;28;20073;-61
2023/11/30 03:39:27;;;;;;;3.22;1.88;;;;;;;;;;5038738;28;20327;-61
2023/11/30 03:41:52;;;;;;;2.55;1.70;;;;;;;;;;5038207;28;20118;-61
2023/11/30 03:44:19;;;;;;;1.97;1.60;;;;;;;;;;5041825;28;20459;-60
2023/11/30 03:46:44;;;;;;;2.08;1.60;;;;;;;;;;5041447;28;20302;-60
2023/11/30 03:49:12;;;;;;;3.03;1.80;;;;;;;;;;5043823;28;20033;-62
2023/11/30 03:51:38;;;;;;;2.30;1.50;;;;;;;;;;5035426;28;20041;-61
2023/11/30 03:54:03;;;;;;;2.57;1.67;;;;;;;;;;5043066;28;20040;-61
2023/11/30 03:56:32;;;;;;;1.77;1.40;;;;;;;;;;5026056;28;20310;-62
2023/11/30 03:58:57;;;;;;;2.40;1.63;;;;;;;;;;5042584;28;20069;-61
2023/11/30 04:01:23;;;;;;;2.25;1.52;;;;;;;;;;5041092;28;20064;-61
2023/11/30 04:03:48;;;;;;;2.65;1.70;;;;;;;;;;5041165;28;20063;-62
2023/11/30 04:06:20;;;;;;;1.90;1.60;;;;;;;;;;5040375;28;20098;-62
2023/11/30 04:08:45;;;;;;;2.60;1.70;;;;;;;;;;5043070;28;20049;-61
2023/11/30 04:11:13;;;;;;;2.00;1.50;;;;;;;;;;5038783;28;20574;-61
2023/11/30 04:13:41;;;;;;;2.38;1.40;;;;;;;;;;5039131;28;20655;-61
2023/11/30 04:16:07;;;;;;;1.95;1.35;;;;;;;;;;5041607;28;20013;-61
2023/11/30 04:18:35;;;;;;;2.83;1.80;;;;;;;;;;5033723;28;20090;-62
2023/11/30 04:21:00;;;;;;;2.63;1.58;;;;;;;;;;5023752;28;20517;-61
2023/11/30 04:23:25;;;;;;;2.73;1.70;;;;;;;;;;5034089;28;20087;-61
2023/11/30 04:25:51;;;;;;;2.30;1.53;;;;;;;;;;5032774;28;20757;-61
2023/11/30 04:28:19;;;;;;;2.40;1.60;;;;;;;;;;5043143;28;20660;-62
2023/11/30 04:30:44;;;;;;;2.80;1.95;;;;;;;;;;5040117;28;20086;-62
2023/11/30 04:33:09;;;;;;;2.30;1.50;;;;;;;;;;5039519;28;20057;-61
2023/11/30 04:35:34;;;;;;;2.30;1.60;;;;;;;;;;5037889;28;20307;-61
2023/11/30 04:37:59;;;;;;;2.23;1.40;;;;;;;;;;5043012;28;20048;-61
2023/11/30 04:40:25;;;;;;;2.67;1.67;;;;;;;;;;5042224;28;20268;-61
2023/11/30 04:42:53;;;;;;;2.80;1.67;;;;;;;;;;5029884;28;20315;-63
2023/11/30 04:45:18;;;;;;;2.45;1.75;;;;;;;;;;5049193;28;20284;-62
2023/11/30 04:47:46;;;;;;;2.50;1.67;;;;;;;;;;5039679;28;20099;-61
2023/11/30 04:50:11;;;;;;;2.00;1.60;;;;;;;;;;5040919;28;20276;-62
2023/11/30 04:52:40;;;;;;;2.50;1.77;;;;;;;;;;5037048;28;20039;-61
2023/11/30 04:55:06;;;;;;;2.70;1.70;;;;;;;;;;5034772;28;20033;-62
2023/11/30 04:57:31;;;;;;;2.25;1.60;;;;;;;;;;5039863;28;20425;-61
2023/11/30 04:59:56;;;;;;;2.23;1.70;;;;;;;;;;5039271;28;20112;-62
2023/11/30 05:02:27;;;;;;;2.70;1.85;;;;;;;;;;5037783;28;20276;-61
2023/11/30 05:04:53;;;;;;;1.98;1.40;;;;;;;;;;5031250;28;20087;-60
2023/11/30 05:07:21;;;;;;;2.72;1.90;;;;;;;;;;5039967;28;20479;-61
2023/11/30 05:09:46;;;;;;;2.13;1.50;;;;;;;;;;5034473;28;20079;-61
2023/11/30 05:12:15;;;;;;;2.67;1.70;;;;;;;;;;5037907;28;20033;-60
2023/11/30 05:14:40;;;;;;;2.53;1.80;;;;;;;;;;5020888;28;20291;-60
2023/11/30 05:17:08;;;;;;;2.87;1.87;;;;;;;;;;5040394;28;20112;-61
2023/11/30 05:19:33;;;;;;;1.80;1.55;;;;;;;;;;5041007;28;20310;-62
2023/11/30 05:22:01;;;;;;;2.40;1.80;;;;;;;;;;5034683;28;20514;-61
2023/11/30 05:24:27;;;;;;;2.30;1.70;;;;;;;;;;5028676;28;20130;-61
2023/11/30 05:26:53;;;;;;;2.50;1.70;;;;;;;;;;5030717;28;20518;-59
2023/11/30 05:29:18;;;;;;;2.95;1.83;;;;;;;;;;5040425;28;21456;-62
2023/11/30 05:31:43;;;;;;;2.90;1.77;;;;;;;;;;5040938;28;20048;-60
2023/11/30 05:34:09;;;;;;;2.30;1.80;;;;;;;;;;5042084;28;20286;-60
2023/11/30 05:36:34;;;;;;;3.20;1.85;;;;;;;;;;5038810;28;20797;-59
2023/11/30 05:38:59;;;;;;;2.83;1.80;;;;;;;;;;5040414;28;20509;-59
2023/11/30 05:41:25;;;;;;;7.10;1.90;;;;;;;;;;5037805;28;20287;-59
2023/11/30 05:43:50;;;;;;;2.77;1.90;;;;;;;;;;5038437;28;20047;-58
2023/11/30 05:46:18;;;;;;;3.30;1.80;;;;;;;;;;5031427;28;20322;-60
2023/11/30 05:48:43;;;;;;;3.15;2.05;;;;;;;;;;5040041;28;20037;-59
2023/11/30 05:51:08;;;;;;;3.93;1.90;;;;;;;;;;5038343;28;20041;-59
2023/11/30 05:53:33;;;;;;;3.87;1.80;;;;;;;;;;5039269;28;20283;-59
2023/11/30 05:55:59;;;;;;;4.45;2.00;;;;;;;;;;5038148;28;20374;-60
2023/11/30 05:58:28;;;;;;;3.28;1.83;;;;;;;;;;5044178;28;20604;-62
2023/11/30 06:00:53;;;;;;;2.80;2.00;;;;;;;;;;5045195;28;20043;-59
2023/11/30 06:03:18;;;;;;;2.50;1.98;;;;;;;;;;5040915;28;20045;-58
2023/11/30 06:05:45;;;;;;;4.40;2.10;;;;;;;;;;5037481;28;20022;-60
2023/11/30 06:08:11;;;;;;;2.40;1.90;;;;;;;;;;5039629;28;20283;-59
2023/11/30 06:10:39;;;;;;;2.93;2.17;;;;;;;;;;5043770;28;20029;-59
2023/11/30 06:13:07;;;;;;;2.83;2.00;;;;;;;;;;5041495;28;20287;-59
2023/11/30 06:15:32;;;;;;;2.78;1.98;;;;;;;;;;5038300;28;20038;-59
2023/11/30 06:17:57;;;;;;;3.10;2.00;;;;;;;;;;5039031;28;20037;-58
2023/11/30 06:20:25;;;;;;;2.63;2.00;;;;;;;;;;5044207;28;20358;-60
2023/11/30 06:22:50;;;;;;;3.50;2.00;;;;;;;;;;5043853;28;20286;-59
2023/11/30 06:25:18;;;;;;;2.80;2.00;;;;;;;;;;5043025;28;20025;-59
2023/11/30 06:27:44;;;;;;;3.50;2.00;;;;;;;;;;5043218;28;20033;-60
2023/11/30 06:30:12;;;;;;;4.07;2.30;;;;;;;;;;5044321;28;20029;-59
2023/11/30 06:32:37;;;;;;;2.55;1.80;;;;;;;;;;5040883;28;20345;-58
2023/11/30 06:35:03;;;;;;;3.38;2.13;;;;;;;;;;5040876;28;20841;-59
2023/11/30 06:37:29;;;;;;;3.20;2.20;;;;;;;;;;5042854;28;20115;-59
2023/11/30 06:39:54;;;;;;;3.63;2.17;;;;;;;;;;5043378;28;20052;-59
2023/11/30 06:42:19;;;;;;;3.17;2.13;;;;;;;;;;5041809;28;20040;-59
2023/11/30 06:44:47;;;;;;;4.10;2.20;;;;;;;;;;5045403;28;20383;-59
2023/11/30 06:47:15;;;;;;;4.25;2.42;;;;;;;;;;5039501;28;20326;-59
2023/11/30 06:49:40;;;;;;;3.65;2.15;;;;;;;;;;5043529;28;20743;-59
2023/11/30 06:52:07;;;;;;;6.03;2.40;;;;;;;;;;5044703;28;20120;-60
2023/11/30 06:54:33;;;;;;;2.90;2.15;;;;;;;;;;5038025;28;20060;-60
2023/11/30 06:56:58;;;;;;;2.83;2.00;;;;;;;;;;5098211;23;20021;-76
2023/11/30 06:59:23;;;;;;;3.47;2.23;;;;;;;;;;5071012;28;20052;-76
2023/11/30 07:01:49;;;;;;;5.43;2.23;;;;;;;;;;5070742;28;20028;-76
2023/11/30 07:04:14;;;;;;;5.88;2.03;;;;;;;;;;5067800;28;20040;-75
2023/11/30 07:06:40;;;;;;;5.40;2.20;;;;;;;;;;5070926;28;20044;-77
2023/11/30 07:09:05;;;;;;;5.97;2.47;;;;;;;;;;5069351;28;20021;-76
2023/11/30 07:11:31;;;;;;;5.40;2.00;;;;;;;;;;5069877;28;20040;-75
2023/11/30 07:13:56;;;;;;;3.63;2.05;;;;;;;;;;5069384;28;20551;-75
2023/11/30 07:16:21;;;;;;;5.70;2.60;;;;;;;;;;5071104;28;20133;-76
2023/11/30 07:18:46;;;;;;;2.90;2.00;;;;;;;;;;5070633;28;20806;-77
2023/11/30 07:21:13;;;;;;;7.75;2.20;;;;;;;;;;5071304;28;20275;-77
2023/11/30 07:23:38;;;;;;;3.35;2.15;;;;;;;;;;5072015;28;20028;-76
2023/11/30 07:26:09;;;;;;;3.67;2.10;;;;;;;;;;5070622;28;20572;-77
2023/11/30 07:28:34;;;;;;;3.65;2.17;;;;;;;;;;5069694;28;20275;-76
2023/11/30 07:30:59;;;;;;;3.55;1.92;;;;;;;;;;5072914;28;20517;-76
2023/11/30 07:33:24;;;;;;;5.53;2.23;;;;;;;;;;5071728;28;20440;-77
2023/11/30 07:35:50;;;;;;;2.70;2.00;;;;;;;;;;5071350;28;20283;-77
2023/11/30 07:38:15;;;;;;;4.37;2.20;;;;;;;;;;5068899;28;20051;-77
2023/11/30 07:40:40;;;;;;;2.90;2.17;;;;;;;;;;5071209;28;20033;-76
2023/11/30 07:43:06;;;;;;;4.00;2.28;;;;;;;;;;5070272;28;20283;-77
2023/11/30 07:45:31;;;;;;;3.40;2.07;;;;;;;;;;5070399;28;20105;-78
2023/11/30 07:47:56;;;;;;;3.40;2.07;;;;;;;;;;5071938;28;20298;-76
2023/11/30 07:50:22;;;;;;;4.05;2.05;;;;;;;;;;5071032;28;20044;-76
2023/11/30 07:52:47;;;;;;;5.60;2.58;;;;;;;;;;5072187;28;20374;-75
2023/11/30 07:55:14;;;;;;;4.13;2.50;;;;;;;;;;5073506;28;20090;-76
2023/11/30 07:57:39;;;;;;;3.97;2.50;;;;;;;;;;5072454;28;20068;-76
2023/11/30 08:00:07;;;;;;;4.20;2.33;;;;;;;;;;5072177;28;20066;-76
2023/11/30 08:02:34;;;;;;;3.58;2.55;;;;;;;;;;5071445;28;20286;-76
2023/11/30 08:04:59;;;;;;;5.03;2.70;;;;;;;;;;5070622;28;20028;-77
2023/11/30 08:07:24;;;;;;;3.08;2.42;;;;;;;;;;5071192;28;20086;-77
2023/11/30 08:09:49;;;;;;;3.67;2.43;;;;;;;;;;5073064;28;20122;-77
2023/11/30 08:12:15;;;;;;;3.57;2.40;;;;;;;;;;5071093;28;20077;-77
2023/11/30 08:14:40;;;;;;;3.37;2.20;;;;;;;;;;5071262;28;20106;-76
2023/11/30 08:17:05;;;;;;;4.13;2.20;;;;;;;;;;5049706;28;20278;-76
2023/11/30 08:19:32;;;;;;;3.85;2.60;;;;;;;;;;5069145;28;20052;-77
2023/11/30 08:21:57;;;;;;;3.53;2.42;;;;;;;;;;5068988;28;20028;-77
2023/11/30 08:24:23;;;;;;;4.40;2.70;;;;;;;;;;5069917;28;20037;-76
2023/11/30 08:26:48;;;;;;;3.30;2.70;;;;;;;;;;5070295;28;20373;-76
2023/11/30 08:29:15;;;;;;;4.13;2.72;;;;;;;;;;5067542;28;20029;-76
2023/11/30 08:31:40;;;;;;;7.40;2.42;;;;;;;;;;5068157;28;20062;-76
2023/11/30 08:34:06;;;;;;;4.13;2.83;;;;;;;;;;5066138;28;20045;-76
2023/11/30 08:36:31;;;;;;;3.65;2.40;;;;;;;;;;5069131;28;20443;-76
2023/11/30 08:38:56;;;;;;;5.22;2.50;;;;;;;;;;5067209;28;20041;-76
2023/11/30 08:41:21;;;;;;;4.30;2.60;;;;;;;;;;5068323;28;20032;-75
2023/11/30 08:43:47;;;;;;;4.60;2.33;;;;;;;;;;5051659;28;20036;-76
2023/11/30 08:46:13;;;;;;;4.38;2.47;;;;;;;;;;5067228;28;20790;-75
2023/11/30 08:48:38;;;;;;;4.07;2.70;;;;;;;;;;5067592;28;20036;-79
2023/11/30 08:51:03;;;;;;;5.60;2.90;;;;;;;;;;5069642;28;20064;-78
2023/11/30 08:53:29;;;;;;;4.38;3.05;;;;;;;;;;5068293;28;20033;-78
2023/11/30 08:55:54;;;;;;;5.20;2.97;;;;;;;;;;5062136;28;20044;-77
2023/11/30 08:58:19;;;;;;;4.53;2.70;;;;;;;;;;5068651;28;20056;-76
2023/11/30 09:00:45;;;;;;;5.20;2.70;;;;;;;;;;5068653;28;20131;-75
2023/11/30 09:03:11;;;;;;;6.55;3.15;;;;;;;;;;5071886;28;20261;-76
2023/11/30 09:05:37;;;;;;;4.07;2.95;;;;;;;;;;5072706;28;20059;-76
2023/11/30 09:08:02;;;;;;;5.85;3.25;;;;;;;;;;5070532;28;20033;-76
2023/11/30 09:10:28;;;;;;;4.97;3.13;;;;;;;;;;5069164;28;20493;-77
2023/11/30 09:12:53;;;;;;;5.00;3.08;;;;;;;;;;5051030;28;20107;-76
2023/11/30 09:15:19;;;;;;;3.70;3.00;;;;;;;;;;5066209;28;20452;-76
2023/11/30 09:17:45;;;;;;;4.32;3.10;;;;;;;;;;5068416;28;20293;-77
2023/11/30 09:20:10;;;;;;;4.07;2.90;;;;;;;;;;5062121;28;20040;-77
2023/11/30 09:22:35;;;;;;;4.65;2.95;;;;;;;;;;5068208;28;20036;-77
2023/11/30 09:25:01;;;;;;;4.35;3.08;;;;;;;;;;5067835;28;20190;-78
2023/11/30 09:27:26;;;;;;;4.82;3.10;;;;;;;;;;5067389;28;20033;-76
2023/11/30 09:29:51;;;;;;;5.73;3.10;;;;;;;;;;5067324;28;20187;-76
2023/11/30 09:32:16;;;;;;;4.82;3.42;;;;;;;;;;5066444;28;20306;-76
2023/11/30 09:34:42;;;;;;;5.10;3.37;;;;;;;;;;5065196;28;20044;-76
2023/11/30 09:37:07;;;;;;;3.95;3.22;;;;;;;;;;5068993;28;20037;-77
2023/11/30 09:39:32;;;;;;;4.10;2.97;;;;;;;;;;5068366;28;20504;-77
2023/11/30 09:41:59;;;;;;;5.57;3.30;;;;;;;;;;5067816;28;20319;-76
2023/11/30 09:44:25;;;;;;;4.90;2.80;;;;;;;;;;5065499;28;20293;-77
2023/11/30 09:46:50;;;;;;;5.05;3.30;;;;;;;;;;5066250;28;20041;-77
2023/11/30 09:49:16;;;;;;;4.57;3.30;;;;;;;;;;5066784;28;20504;-78
2023/11/30 09:51:41;;;;;;;4.45;3.20;;;;;;;;;;5069457;28;20043;-76
2023/11/30 09:54:06;;;;;;;5.23;3.80;;;;;;;;;;5076180;28;20028;-76
2023/11/30 09:56:32;;;;;;;5.50;3.57;;;;;;;;;;5076357;28;20166;-77
2023/11/30 09:58:59;;;;;;;5.15;3.33;;;;;;;;;;5073772;28;20310;-77
2023/11/30 10:01:24;;;;;;;4.45;3.50;;;;;;;;;;5079541;28;20616;-76
2023/11/30 10:03:49;;;;;;;5.07;3.65;;;;;;;;;;5080694;28;20036;-76
2023/11/30 10:06:15;;;;;;;4.50;3.28;;;;;;;;;;5078675;28;20067;-77
2023/11/30 10:08:41;;;;;;;5.40;3.38;;;;;;;;;;5075714;28;20056;-77
2023/11/30 10:11:09;;;;;;;6.28;3.85;;;;;;;;;;5078748;28;20429;-76
2023/11/30 10:13:35;;;;;;;5.35;3.83;;;;;;;;;;5078071;28;20126;-77
2023/11/30 10:16:01;;;;;;;5.55;3.70;;;;;;;;;;5075414;28;20047;-76
2023/11/30 10:18:28;;;;;;;5.75;4.15;;;;;;;;;;5075493;28;20032;-76
2023/11/30 10:20:54;;;;;;;4.72;3.70;;;;;;;;;;5076727;28;20013;-76
2023/11/30 10:23:20;;;;;;;5.38;3.90;;;;;;;;;;5077524;28;20105;-76
2023/11/30 10:25:46;;;;;;;6.82;3.67;;;;;;;;;;5075640;28;20020;-74
2023/11/30 10:28:13;;;;;;;5.22;3.75;;;;;;;;;;5076008;28;20020;-75
2023/11/30 10:30:43;;;;;;;5.45;4.03;;;;;;;;;;5078128;28;20009;-76
2023/11/30 10:33:15;;;;;;;5.13;4.00;;;;;;;;;;5077810;28;20051;-77
2023/11/30 10:35:46;;;;;;;5.63;4.13;;;;;;;;;;5076223;28;20040;-78
2023/11/30 10:38:14;;;;;;;5.28;4.30;;;;;;;;;;5076503;28;20071;-78
2023/11/30 10:40:39;;;;;;;6.00;4.32;;;;;;;;;;5077358;28;20036;-78
2023/11/30 10:43:05;;;;;;;4.82;3.88;;;;;;;;;;5080168;28;20036;-77
2023/11/30 10:45:31;;;;;;;4.88;4.05;;;;;;;;;;5082617;28;20032;-77
2023/11/30 10:47:56;;;;;;;5.32;3.85;;;;;;;;;;5079636;28;20084;-78
2023/11/30 10:50:21;;;;;;;5.75;4.18;;;;;;;;;;5062798;28;20052;-78
2023/11/30 10:52:48;;;;;;;4.70;3.70;;;;;;;;;;5078134;28;20333;-77
2023/11/30 10:55:13;;;;;;;4.93;3.85;;;;;;;;;;5078493;28;20032;-77
2023/11/30 10:57:45;;;;;;;5.35;4.10;;;;;;;;;;5077819;28;20029;-77
2023/11/30 11:00:15;;;;;;;5.93;4.45;;;;;;;;;;5078092;28;20043;-77
2023/11/30 11:02:41;;;;;;;5.80;4.30;;;;;;;;;;5076048;28;20032;-78
2023/11/30 11:05:08;;;;;;;5.40;4.28;;;;;;;;;;5075161;28;20068;-77
2023/11/30 11:07:33;;;;;;;6.13;4.60;;;;;;;;;;5073938;28;20040;-78
2023/11/30 11:10:00;;;;;;;5.20;4.38;;;;;;;;;;5073575;28;20024;-78
2023/11/30 11:12:26;;;;;;;6.10;3.92;;;;;;;;;;5071578;28;20476;-77
2023/11/30 11:15:24;;;;;;;5.18;4.05;;;;;;;;;;5068892;28;20037;-77
2023/11/30 11:17:53;;;;;;;5.63;4.28;;;;;;;;;;5030440;28;20040;-78
2023/11/30 11:20:22;;;;;;;6.10;4.72;;;;;;;;;;5069614;28;20040;-77
2023/11/30 11:22:48;;;;;;;5.88;4.55;;;;;;;;;;5070851;28;20047;-78
2023/11/30 11:25:15;;;;;;;5.55;4.30;;;;;;;;;;5072645;28;20036;-75
2023/11/30 11:27:40;;;;;;;5.95;4.68;;;;;;;;;;5071837;28;20032;-76
2023/11/30 11:30:07;;;;;;;4.95;4.30;;;;;;;;;;5073390;28;20420;-76
2023/11/30 11:32:39;;;;;;;5.25;3.95;;;;;;;;;;5072767;28;20056;-76
2023/11/30 11:35:08;;;;;;;5.47;4.50;;;;;;;;;;5076830;28;20029;-76
2023/11/30 11:37:39;;;;;;;6.53;4.95;;;;;;;;;;5074922;28;20078;-76
2023/11/30 11:40:24;;;;;;;5.72;4.50;;;;;;;;;;5075750;28;20108;-76
2023/11/30 11:42:51;;;;;;;6.07;4.57;;;;;;;;;;5077309;28;20041;-77
2023/11/30 11:45:49;;;;;;;5.85;5.10;;;;;;;;;;5077208;28;20039;-76
2023/11/30 11:48:15;;;;;;;5.15;4.20;;;;;;;;;;5076631;28;20025;-76
2023/11/30 11:50:40;;;;;;;4.93;4.10;;;;;;;;;;5074980;28;20039;-77
2023/11/30 11:53:06;;;;;;;5.75;4.53;;;;;;;;;;5074381;28;20039;-77
2023/11/30 11:55:31;;;;;;;6.20;4.78;;;;;;;;;;5070565;28;20085;-76
2023/11/30 11:57:56;;;;;;;6.07;4.68;;;;;;;;;;5071754;28;20063;-76
2023/11/30 12:00:22;;;;;;;6.07;4.72;;;;;;;;;;5072975;28;20118;-77
2023/11/30 12:02:49;;;;;;;5.90;4.63;;;;;;;;;;5083694;28;20028;-77
2023/11/30 12:05:16;;;;;;;6.72;4.97;;;;;;;;;;5094685;28;20298;-75
2023/11/30 12:07:48;;;;;;;6.25;4.75;;;;;;;;;;5094487;28;20059;-77
2023/11/30 12:10:24;;;;;;;5.20;4.53;;;;;;;;;;5094575;28;20036;-77
2023/11/30 12:12:50;;;;;;;5.35;4.43;;;;;;;;;;5095311;28;20029;-77
2023/11/30 12:15:16;;;;;;;5.70;4.47;;;;;;;;;;5095407;28;20039;-76
2023/11/30 12:17:42;;;;;;;6.68;5.03;;;;;;;;;;5091382;28;20033;-77
2023/11/30 12:20:07;;;;;;;6.60;5.07;;;;;;;;;;5081556;28;20048;-76
2023/11/30 12:22:33;;;;;;;5.68;4.90;;;;;;;;;;5094385;28;20096;-76
2023/11/30 12:24:58;;;;;;;6.63;4.97;;;;;;;;;;5094779;28;20045;-77
2023/11/30 12:27:23;;;;;;;5.95;4.90;;;;;;;;;;5095488;28;20036;-77
2023/11/30 12:29:48;;;;;;;6.15;4.82;;;;;;;;;;5095006;28;20028;-76
2023/11/30 12:32:14;;;;;;;7.15;5.13;;;;;;;;;;5094765;28;20738;-76
2023/11/30 12:34:39;;;;;;;6.40;4.93;;;;;;;;;;5093264;28;20021;-76
2023/11/30 12:37:06;;;;;;;7.70;5.20;;;;;;;;;;5095002;28;20024;-77
2023/11/30 12:39:32;;;;;;;5.30;4.70;;;;;;;;;;5075900;28;20135;-76
2023/11/30 12:41:58;;;;;;;5.68;4.65;;;;;;;;;;5073992;28;20045;-76
2023/11/30 12:44:23;;;;;;;6.18;4.97;;;;;;;;;;5069846;28;20044;-76
2023/11/30 12:46:48;;;;;;;6.68;5.18;;;;;;;;;;5068340;28;20410;-76
2023/11/30 12:49:13;;;;;;;6.80;4.65;;;;;;;;;;5068621;28;20032;-76
2023/11/30 12:51:39;;;;;;;6.38;4.78;;;;;;;;;;5067530;28;20111;-77
2023/11/30 12:54:04;;;;;;;6.13;5.20;;;;;;;;;;5067047;28;20123;-76
2023/11/30 12:56:30;;;;;;;5.75;4.95;;;;;;;;;;5067375;28;20052;-76
2023/11/30 12:58:56;;;;;;;6.22;5.03;;;;;;;;;;5067502;28;20529;-76
2023/11/30 13:01:21;;;;;;;5.85;5.28;;;;;;;;;;5067785;28;20041;-76
2023/11/30 13:03:47;;;;;;;6.45;5.65;;;;;;;;;;5064941;28;20091;-77
2023/11/30 13:06:12;;;;;;;6.40;4.90;;;;;;;;;;5067366;28;20036;-77
2023/11/30 13:08:37;;;;;;;6.25;5.00;;;;;;;;;;5067001;28;20484;-77
2023/11/30 13:11:03;;;;;;;7.25;5.30;;;;;;;;;;5067486;28;20055;-76
2023/11/30 13:13:28;;;;;;;6.30;5.50;;;;;;;;;;5068065;28;20060;-76
2023/11/30 13:15:56;;;;;;;6.38;5.35;;;;;;;;;;5070310;28;20021;-76
2023/11/30 13:18:21;;;;;;;6.82;5.30;;;;;;;;;;5070006;28;20040;-76
2023/11/30 13:20:47;;;;;;;5.93;5.13;;;;;;;;;;5068981;28;20121;-76
2023/11/30 13:23:13;;;;;;;6.65;5.68;;;;;;;;;;5068558;28;20060;-76
2023/11/30 13:25:38;;;;;;;6.32;5.13;;;;;;;;;;5068563;28;20066;-77
2023/11/30 13:28:03;;;;;;;6.35;5.32;;;;;;;;;;5069101;28;20033;-76
2023/11/30 13:30:29;;;;;;;6.23;5.03;;;;;;;;;;5069308;28;20036;-77
2023/11/30 13:32:55;;;;;;;6.55;5.07;;;;;;;;;;5069503;28;20274;-76
2023/11/30 13:35:20;;;;;;;6.60;5.45;;;;;;;;;;5069348;28;20047;-75
2023/11/30 13:37:46;;;;;;;6.07;5.20;;;;;;;;;;5068188;28;20029;-76
2023/11/30 13:40:11;;;;;;;6.78;5.70;;;;;;;;;;5069432;28;20116;-76
2023/11/30 13:42:36;;;;;;;6.00;5.18;;;;;;;;;;5075094;28;20032;-76
2023/11/30 13:45:02;;;;;;;6.32;5.68;;;;;;;;;;5066460;28;20467;-76
2023/11/30 13:47:30;;;;;;;6.53;5.47;;;;;;;;;;5081580;28;20041;-76
2023/11/30 13:49:56;;;;;;;7.70;5.68;;;;;;;;;;5081267;28;20040;-76
2023/11/30 13:52:21;;;;;;;7.07;5.57;;;;;;;;;;5064639;28;20548;-77
2023/11/30 13:54:47;;;;;;;6.90;5.50;;;;;;;;;;5084073;28;20094;-76
2023/11/30 13:57:13;;;;;;;6.63;5.55;;;;;;;;;;5079622;28;20033;-76
2023/11/30 13:59:38;;;;;;;6.82;5.63;;;;;;;;;;5068316;28;20567;-75
2023/11/30 14:02:03;;;;;;;6.55;5.57;;;;;;;;;;5068282;28;20032;-75
2023/11/30 14:04:29;;;;;;;7.72;5.75;;;;;;;;;;5064642;28;20043;-75
2023/11/30 14:06:58;;;;;;;6.78;5.72;;;;;;;;;;5066454;28;20041;-75
2023/11/30 14:09:26;;;;;;;7.18;5.80;;;;;;;;;;5066248;28;20040;-74
2023/11/30 14:11:54;;;;;;;6.65;5.82;;;;;;;;;;5066209;28;20033;-75
2023/11/30 14:14:20;;;;;;;7.28;5.53;;;;;;;;;;5065860;28;20036;-75
2023/11/30 14:16:45;;;;;;;7.05;5.85;;;;;;;;;;5070120;28;20037;-75
2023/11/30 14:19:10;;;;;;;6.13;5.35;;;;;;;;;;5070988;28;20105;-75
2023/11/30 14:21:36;;;;;;;6.15;5.30;;;;;;;;;;5071862;28;20039;-75
2023/11/30 14:24:01;;;;;;;7.65;5.97;;;;;;;;;;5072203;28;20037;-75
2023/11/30 14:26:26;;;;;;;6.53;5.80;;;;;;;;;;5073813;28;20036;-75
2023/11/30 14:28:51;;;;;;;7.80;6.35;;;;;;;;;;5070725;28;20279;-75
2023/11/30 14:31:17;;;;;;;6.80;5.82;;;;;;;;;;5071520;28;20078;-75
2023/11/30 14:33:44;;;;;;;7.47;6.25;;;;;;;;;;5069179;28;20036;-75
2023/11/30 14:36:10;;;;;;;8.57;6.50;;;;;;;;;;5071171;28;20032;-75
2023/11/30 14:38:36;;;;;;;7.03;6.20;;;;;;;;;;5071377;28;20506;-75